Impacts METAR Board
IDs:

KCLE - Cleveland/Hopkins In, OH, US

Updated at: 2100 UTC 15 Jun 2019
Potential Impact None Slight Moderate High
Time 15/09Z 15/10Z 15/11Z 15/12Z 15/13Z 15/14Z 15/15Z 15/16Z 15/17Z 15/18Z 15/19Z 15/20Z 15/21Z
Temp65 64 66 65 66 66 65 67 68 70 67 67 68
Dewpt47 48 48 50 50 53 55 55 58 58 62 63 62
Altim29.99 30.00 30.00 29.99 29.98 29.97 29.95 29.95 29.95 29.94 29.93 29.94 29.93
VIS10 10 10 10 10 10 10 10 10 10 5 10 9
CIG130 65 60 75 70 70 65 50 50 46 55 43 75
CoverOVCOVCOVCOVCOVCOVCOVCOVCOVCOVCOVCOVCOVC
FltCatVFRVFRVFRVFRVFRVFRVFRVFRVFRVFRMVFRVFRVFR
WX-----------RA-RA-------RA-RA-RA
WDir2001902001802102001902002402100210200
WSpd10 7 12 10 12 8 7 9 5 5 0 3 9
WGst-- -- 18 -- -- 18 -- -- -- -- -- -- --
Raw hourly METARs
KCLE 150851Z 20010KT 10SM SCT070 OVC130 18/08 A2999 RMK AO2 SLP151 T01830083 55002
KCLE 150951Z 19007KT 10SM BKN065 BKN080 OVC100 18/09 A3000 RMK AO2 SLP153 T01780089
KCLE 151051Z 20012G18KT 10SM OVC060 19/09 A3000 RMK AO2 SLP155 T01890089
KCLE 151151Z 18010KT 10SM OVC075 18/10 A2999 RMK AO2 SLP150 T01830100 10189 20178 58001
KCLE 151251Z 21012KT 10SM BKN070 OVC090 19/10 A2998 RMK AO2 SLP148 T01890100
KCLE 151351Z 20008G18KT 10SM -RA OVC070 19/12 A2997 RMK AO2 RAB44 SLP144 P0000 T01890117
KCLE 151451Z 19007KT 10SM -RA FEW048 BKN065 OVC075 18/13 A2995 RMK AO2 SLP138 P0001 60001 T01830128 58013
KCLE 151551Z 20009KT 10SM OVC050 19/13 A2995 RMK AO2 RAE1456 SLP137 P0000 T01940128
KCLE 151651Z 24005KT 10SM SCT037 OVC050 20/14 A2995 RMK AO2 RAB22E40 SLP139 P0001 T02000144
KCLE 151751Z 21005KT 10SM OVC046 21/14 A2994 RMK AO2 PK WND 25026/1706 SLP133 60002 T02110144 10211 20183 58004
KCLE 151851Z 00000KT 5SM -RA FEW042 BKN055 OVC075 19/17 A2993 RMK AO2 RAB24 SLP132 P0004 T01940167
KCLE 151951Z 21003KT 10SM -RA BKN043 BKN055 OVC065 19/17 A2994 RMK AO2 SLP135 P0004 T01940172
KCLE 152051Z 20009KT 9SM -RA OVC075 20/17 A2993 RMK AO2 RAE1955B28 SLP131 P0000 60008 T02000167 58003



Page loaded:  21:28 UTC  |   02:28 PM Pacific  |   03:28 PM Mountain  |   04:28 PM Central  |   05:28 PM Eastern

 

ADVISORIES

FORECASTS

FORECASTS

OBSERVATIONS

USER TOOLS

ABOUT US